Hoosick Junction, New York
Current Conditions -  °F | °C
As of 3:03 AM on Saturday 25 Oct 2014 (Local Time) from KDDH Reporting Station
Haze Haze  
Wind Chill: 36°   Ceiling: Unl
Heat Index: 36°   Visibility: 1.7mi
Dew Point: 34°   Wind: 0mph
Humidity: 93%   Direction: NA
Pressure: 29.82"   Gusts: NA
Location:  42.9226°N, 73.3603°W
Report Text: KDDH 250703Z AUTO 00000KT 1 3/4SM BR SCT002 02/01 A2982 RMK AO2 T00220011
Loading
Personal Weather Stations






























Interactive Weather Map
Tropical Storm Tracking
New forecast layout! Learn more

10-Day Weather Forecast

Advertisements
Track Severe Weather on mobile